Time;durP1;ratioP1;P1;durP2;ratioP2;P2;SDS_P1;SDS_P2;PMS_P1;PMS_P2;Temp;Humidity;BMP_temperature;BMP_pressure;BME280_temperature;BME280_humidity;BME280_pressure;Samples;Min_cycle;Max_cycle;Signal;HPM_P1;HPM_P2
2022/04/01 00:02:04;;;;;;;169.40;21.80;;;;;;;-145.69;100.00;71038.25;5072785;28;20244;-76
2022/04/01 00:04:30;;;;;;;279.77;26.30;;;;;;;-145.69;100.00;71032.28;5073085;28;20256;-75
2022/04/01 00:06:57;;;;;;;128.37;21.83;;;;;;;-145.69;100.00;71032.28;5072836;28;20206;-75
2022/04/01 00:09:24;;;;;;;92.27;19.83;;;;;;;-145.69;100.00;71024.34;5072758;28;20301;-75
2022/04/01 00:11:52;;;;;;;98.47;19.93;;;;;;;-145.69;100.00;71026.31;5072780;28;20199;-75
2022/04/01 00:14:19;;;;;;;92.50;19.90;;;;;;;-145.69;100.00;71020.34;5072900;28;20562;-75
2022/04/01 00:16:45;;;;;;;95.53;20.27;;;;;;;-145.69;100.00;71034.28;5072751;28;20207;-75
2022/04/01 00:19:12;;;;;;;108.90;20.00;;;;;;;-145.69;100.00;71032.28;5073018;28;20202;-75
2022/04/01 00:21:39;;;;;;;73.23;17.60;;;;;;;-145.69;100.00;71040.25;5072840;28;20206;-75
2022/04/01 00:24:06;;;;;;;99.00;19.83;;;;;;;-145.69;100.00;71040.25;5072622;28;20325;-75
2022/04/01 00:26:33;;;;;;;88.70;19.13;;;;;;;-145.69;100.00;71038.25;5072357;28;20190;-75
2022/04/01 00:29:00;;;;;;;78.00;17.37;;;;;;;-145.69;100.00;71040.25;5072837;28;20210;-75
2022/04/01 00:31:27;;;;;;;80.40;18.60;;;;;;;-145.69;100.00;71052.19;5072264;28;20191;-75
2022/04/01 00:34:15;;;;;;;82.10;18.77;;;;;;;-145.69;100.00;71052.19;5072556;28;20194;-74
2022/04/01 00:36:40;;;;;;;81.27;18.23;;;;;;;-145.69;100.00;71048.22;5071972;28;20206;-75
2022/04/01 00:39:06;;;;;;;72.67;16.87;;;;;;;-145.69;100.00;71052.19;5072390;28;20604;-75
2022/04/01 00:41:32;;;;;;;67.17;17.20;;;;;;;-145.69;100.00;71060.16;5074920;28;20203;-75
2022/04/01 00:44:15;;;;;;;62.23;16.00;;;;;;;-145.69;100.00;71064.13;5076539;28;20283;-75
2022/04/01 00:46:42;;;;;;;64.67;15.87;;;;;;;-145.69;100.00;71062.13;5076620;28;20562;-74
2022/04/01 00:49:08;;;;;;;72.57;17.17;;;;;;;-145.69;100.00;71056.16;5076386;28;20202;-75
2022/04/01 00:51:35;;;;;;;78.43;18.43;;;;;;;-145.69;100.00;71054.19;5076278;28;20207;-75
2022/04/01 00:54:02;;;;;;;82.07;18.97;;;;;;;-145.69;100.00;71050.22;5076641;28;20234;-74
2022/04/01 00:56:32;;;;;;;90.77;20.30;;;;;;;-145.69;100.00;71046.22;5075741;28;20674;-75
2022/04/01 00:58:59;;;;;;;90.50;20.97;;;;;;;-145.69;100.00;71040.25;5076216;28;20286;-74
2022/04/01 01:01:27;;;;;;;81.17;19.13;;;;;;;-145.69;100.00;71038.25;5076153;28;20202;-75
2022/04/01 01:03:54;;;;;;;76.77;19.60;;;;;;;-145.69;100.00;71054.19;5075765;28;20234;-75
2022/04/01 01:06:22;;;;;;;73.23;18.97;;;;;;;-145.69;100.00;71052.19;5076134;28;20210;-74
2022/04/01 01:08:49;;;;;;;100.80;25.33;;;;;;;-145.69;100.00;71052.19;5075214;28;20563;-74
2022/04/01 01:11:16;;;;;;;88.70;19.87;;;;;;;-145.69;100.00;71052.19;5076190;28;20203;-75
2022/04/01 01:13:42;;;;;;;94.93;21.57;;;;;;;-145.69;100.00;71048.22;5075890;28;20601;-74
2022/04/01 01:16:09;;;;;;;111.13;24.73;;;;;;;-145.69;100.00;71032.28;5076137;28;20206;-74
2022/04/01 01:18:37;;;;;;;136.50;25.63;;;;;;;-145.69;100.00;71022.34;5075544;28;20238;-74
2022/04/01 01:21:04;;;;;;;169.43;26.03;;;;;;;-145.69;100.00;71024.34;5075759;28;20673;-75
2022/04/01 01:23:32;;;;;;;129.17;25.07;;;;;;;-145.69;100.00;71018.38;5075902;28;20249;-74
2022/04/01 01:26:00;;;;;;;98.97;22.77;;;;;;;-145.69;100.00;71016.38;5075592;28;20197;-74
2022/04/01 01:28:27;;;;;;;123.30;23.80;;;;;;;-145.69;100.00;71020.34;5075705;28;20198;-74
2022/04/01 01:30:54;;;;;;;105.87;21.47;;;;;;;-145.69;100.00;71020.34;5075628;28;20260;-74
2022/04/01 01:33:21;;;;;;;102.90;21.07;;;;;;;-145.69;100.00;71024.34;5075772;28;20198;-75
2022/04/01 01:35:48;;;;;;;88.73;20.70;;;;;;;-145.69;100.00;71016.38;5075413;28;20596;-75
2022/04/01 01:38:17;;;;;;;83.83;21.37;;;;;;;-145.69;100.00;71018.38;5075494;28;20298;-76
2022/04/01 01:40:45;;;;;;;87.37;20.13;;;;;;;-145.69;100.00;71024.34;5075522;28;20233;-74
2022/04/01 01:43:13;;;;;;;69.07;18.70;;;;;;;-145.69;100.00;71028.31;5075330;28;20258;-75
2022/04/01 01:45:40;;;;;;;71.73;19.00;;;;;;;-145.69;100.00;71044.22;5075214;28;20271;-75
2022/04/01 01:48:08;;;;;;;52.33;14.90;;;;;;;-145.69;100.00;71048.22;5073310;28;20195;-74
2022/04/01 01:56:04;;;;;;;72.93;19.50;;;;;;;-145.69;100.00;71044.22;5059350;28;20197;-75
2022/04/01 01:58:34;;;;;;;76.37;21.87;;;;;;;-145.69;100.00;71032.28;5075204;28;20278;-75
2022/04/01 02:01:00;;;;;;;86.27;21.67;;;;;;;-145.69;100.00;71036.28;5074842;28;20209;-75
2022/04/01 02:03:27;;;;;;;90.60;20.30;;;;;;;-145.69;100.00;71028.31;5075078;28;20222;-75
2022/04/01 02:05:53;;;;;;;72.37;19.53;;;;;;;-145.69;100.00;71024.34;5075101;28;20244;-75
2022/04/01 02:08:20;;;;;;;79.90;20.00;;;;;;;-145.69;100.00;71024.34;5075000;28;20209;-75
2022/04/01 02:10:47;;;;;;;77.03;19.20;;;;;;;-145.69;100.00;71020.34;5075153;28;20217;-75
2022/04/01 02:13:14;;;;;;;85.63;19.87;;;;;;;-145.69;100.00;71032.28;5075016;28;20256;-75
2022/04/01 02:15:42;;;;;;;77.83;20.03;;;;;;;-145.69;100.00;71038.25;5074906;28;20202;-75
2022/04/01 02:18:10;;;;;;;73.00;20.03;;;;;;;-145.69;100.00;71030.31;5074712;28;20230;-75
2022/04/01 02:20:37;;;;;;;73.20;19.50;;;;;;;-145.69;100.00;71028.31;5074651;28;20199;-75
2022/04/01 02:23:03;;;;;;;69.40;19.63;;;;;;;-145.69;100.00;71028.31;5074559;28;20195;-75
2022/04/01 02:25:31;;;;;;;70.67;19.57;;;;;;;-145.69;100.00;71034.28;5074294;28;20195;-75
2022/04/01 02:27:57;;;;;;;68.03;19.63;;;;;;;-145.69;100.00;71032.28;5074348;28;20198;-75
2022/04/01 02:30:24;;;;;;;68.07;19.83;;;;;;;-145.69;100.00;71032.28;5074358;28;20654;-75
2022/04/01 02:32:52;;;;;;;70.70;19.67;;;;;;;-145.69;100.00;71030.31;5074490;28;20195;-75
2022/04/01 02:35:19;;;;;;;85.72;26.02;;;;;;;-145.69;100.00;71036.28;5073677;28;20434;-75
2022/04/01 02:37:46;;;;;;;61.97;20.27;;;;;;;-145.69;100.00;71034.28;5074238;28;20632;-74
2022/04/01 02:40:13;;;;;;;62.17;18.50;;;;;;;-145.69;100.00;71024.34;5074289;28;20205;-75
2022/04/01 02:42:39;;;;;;;68.37;18.77;;;;;;;-145.69;100.00;71032.28;5074376;28;20711;-75
2022/04/01 02:45:07;;;;;;;64.43;19.20;;;;;;;-145.69;100.00;71038.25;5074144;28;20284;-75
2022/04/01 02:47:33;;;;;;;62.50;17.90;;;;;;;-145.69;100.00;71036.28;5074207;28;20199;-75
2022/04/01 02:50:01;;;;;;;73.13;20.00;;;;;;;-145.69;100.00;71036.28;5074071;28;20202;-75
2022/04/01 02:52:28;;;;;;;67.53;20.80;;;;;;;-145.69;100.00;71034.28;5074279;28;20199;-75
2022/04/01 02:54:55;;;;;;;71.17;20.13;;;;;;;-145.69;100.00;71036.28;5073993;28;20585;-75
2022/04/01 02:57:22;;;;;;;68.73;20.03;;;;;;;-145.69;100.00;71044.22;5074075;28;20237;-74
2022/04/01 02:59:48;;;;;;;61.97;19.47;;;;;;;-145.69;100.00;71046.22;5073698;28;20207;-74
2022/04/01 03:02:15;;;;;;;69.87;20.73;;;;;;;-145.69;100.00;71048.22;5073912;28;20205;-75
2022/04/01 03:04:42;;;;;;;68.47;19.37;;;;;;;-145.69;100.00;71042.25;5072623;28;20317;-75
2022/04/01 03:07:10;;;;;;;67.37;19.73;;;;;;;-145.69;100.00;71050.22;5074082;28;20561;-74
2022/04/01 03:09:36;;;;;;;73.50;21.87;;;;;;;-145.69;100.00;71054.19;5073821;28;20218;-74
2022/04/01 03:12:03;;;;;;;66.50;19.30;;;;;;;-145.69;100.00;71050.22;5073770;28;20203;-74
2022/04/01 03:14:29;;;;;;;66.47;18.13;;;;;;;-145.69;100.00;71042.25;5073534;28;20199;-74
2022/04/01 03:16:56;;;;;;;65.83;19.53;;;;;;;-145.69;100.00;71048.22;5073495;28;20241;-75
2022/04/01 03:19:23;;;;;;;70.87;22.23;;;;;;;-145.69;100.00;71052.19;5073538;28;20234;-74
2022/04/01 03:21:49;;;;;;;68.27;19.80;;;;;;;-145.69;100.00;71058.16;5073716;28;20260;-74
2022/04/01 03:24:17;;;;;;;61.60;20.17;;;;;;;-145.69;100.00;71060.16;5072991;28;20226;-74
2022/04/01 03:26:44;;;;;;;71.20;21.97;;;;;;;-145.69;100.00;71056.16;5073497;28;20289;-74
2022/04/01 03:29:11;;;;;;;68.00;20.03;;;;;;;-145.69;100.00;71056.16;5073394;28;20256;-74
2022/04/01 03:31:38;;;;;;;63.57;20.67;;;;;;;-145.69;100.00;71062.13;5073272;28;20289;-74
2022/04/01 03:34:06;;;;;;;60.60;20.50;;;;;;;-145.69;100.00;71066.13;5073610;28;20199;-74
2022/04/01 03:36:33;;;;;;;64.57;19.67;;;;;;;-145.69;100.00;71076.06;5073253;28;20677;-74
2022/04/01 03:39:00;;;;;;;80.73;28.40;;;;;;;-145.69;100.00;71070.09;5072352;28;20425;-74
2022/04/01 03:41:30;;;;;;;69.20;22.10;;;;;;;-145.69;100.00;71068.13;5073291;28;20281;-75
2022/04/01 03:43:56;;;;;;;65.13;20.97;;;;;;;-145.69;100.00;71070.09;5073055;28;20317;-74
2022/04/01 03:46:26;;;;;;;76.47;20.93;;;;;;;-145.69;100.00;71076.06;5073076;28;20719;-75
2022/04/01 03:48:56;;;;;;;66.87;20.73;;;;;;;-145.69;100.00;71080.06;5064292;28;20670;-75
2022/04/01 03:51:25;;;;;;;68.50;19.93;;;;;;;-145.69;100.00;71084.03;5053159;28;20206;-74
2022/04/01 03:53:55;;;;;;;92.07;21.97;;;;;;;-145.69;100.00;71086.03;5054551;28;20234;-75
2022/04/01 03:56:29;;;;;;;83.50;21.90;;;;;;;-145.69;100.00;71103.94;5072931;28;20186;-74
2022/04/01 03:59:00;;;;;;;74.90;20.93;;;;;;;-145.69;100.00;71103.94;5072796;28;20647;-74
2022/04/01 04:01:27;;;;;;;70.23;21.00;;;;;;;-145.69;100.00;71101.94;5073200;28;20198;-74
2022/04/01 04:03:56;;;;;;;59.87;18.77;;;;;;;-145.69;100.00;71105.91;5072790;28;20764;-74
2022/04/01 04:06:22;;;;;;;75.53;20.57;;;;;;;-145.69;100.00;71115.88;5072979;28;20206;-75
2022/04/01 04:08:50;;;;;;;68.00;19.67;;;;;;;-145.69;100.00;71117.84;5072900;28;20199;-75
2022/04/01 04:11:19;;;;;;;59.30;19.07;;;;;;;-145.69;100.00;71123.81;5072705;28;20821;-75
2022/04/01 04:13:46;;;;;;;71.53;19.40;;;;;;;-145.69;100.00;71117.84;5073177;28;20211;-74
2022/04/01 04:16:19;;;;;;;58.37;18.77;;;;;;;-145.69;100.00;71123.81;5072473;28;20743;-75
2022/04/01 04:18:48;;;;;;;58.70;19.40;;;;;;;-145.69;100.00;71119.84;5072717;28;20238;-75
2022/04/01 04:21:25;;;;;;;52.20;17.57;;;;;;;-145.69;100.00;71123.81;5072741;28;20666;-75
2022/04/01 04:23:56;;;;;;;64.33;19.60;;;;;;;-145.69;100.00;71127.81;5072313;28;20309;-75
2022/04/01 04:26:26;;;;;;;59.00;17.97;;;;;;;-145.69;100.00;71127.81;5072968;28;20293;-75
2022/04/01 04:29:03;;;;;;;53.30;17.67;;;;;;;-145.69;100.00;71127.81;5072816;28;20206;-74
2022/04/01 04:31:35;;;;;;;61.37;17.63;;;;;;;-145.69;100.00;71131.78;5072763;28;20202;-75
2022/04/01 04:34:04;;;;;;;49.00;16.87;;;;;;;-145.69;100.00;71127.81;5072634;28;20657;-75
2022/04/01 04:36:38;;;;;;;51.23;15.43;;;;;;;-145.69;100.00;71127.81;5072416;28;20663;-74
2022/04/01 04:39:06;;;;;;;47.77;15.47;;;;;;;-145.69;100.00;71139.75;5072804;28;20205;-75
2022/04/01 04:41:33;;;;;;;41.00;12.97;;;;;;;-145.69;100.00;71147.69;5072668;28;20256;-74
2022/04/01 04:44:01;;;;;;;37.77;12.40;;;;;;;-145.69;100.00;71153.66;5072446;28;20624;-74
2022/04/01 04:46:28;;;;;;;33.13;11.63;;;;;;;-145.69;100.00;71165.59;5072396;28;20759;-74
2022/04/01 04:48:56;;;;;;;32.87;12.07;;;;;;;-145.69;100.00;71165.59;5072386;28;20305;-75
2022/04/01 04:51:24;;;;;;;32.73;11.43;;;;;;;-145.69;100.00;71167.59;5072629;28;20199;-75
2022/04/01 04:53:51;;;;;;;27.47;10.17;;;;;;;-145.69;100.00;71175.56;5072152;28;20241;-74
2022/04/01 04:56:19;;;;;;;25.40;9.03;;;;;;;-145.69;100.00;71179.53;5072526;28;20207;-75
2022/04/01 04:58:47;;;;;;;26.27;8.60;;;;;;;-145.69;100.00;71185.50;5072372;28;20207;-75
2022/04/01 05:01:25;;;;;;;23.40;9.33;;;;;;;-145.69;100.00;71191.47;5072311;28;20669;-75
2022/04/01 05:04:10;;;;;;;22.30;8.83;;;;;;;-145.69;100.00;71193.47;5072436;28;20195;-75
2022/04/01 05:06:40;;;;;;;26.50;8.93;;;;;;;-145.69;100.00;71187.50;5072454;28;20609;-75
2022/04/01 05:09:15;;;;;;;24.93;9.20;;;;;;;-145.69;100.00;71197.44;5072414;28;20242;-75
2022/04/01 05:11:48;;;;;;;25.07;9.37;;;;;;;-145.69;100.00;71199.44;5072075;28;20190;-75
2022/04/01 05:14:31;;;;;;;27.23;9.63;;;;;;;-145.69;100.00;71197.44;5072500;28;20207;-75
2022/04/01 05:17:02;;;;;;;30.93;10.60;;;;;;;-145.69;100.00;71207.38;5072117;28;20230;-75
2022/04/01 05:19:32;;;;;;;29.60;10.93;;;;;;;-145.69;100.00;71211.38;5072029;28;20205;-75
2022/04/01 05:22:02;;;;;;;27.23;10.20;;;;;;;-145.69;100.00;71211.38;5072241;28;20285;-75
2022/04/01 05:24:37;;;;;;;33.60;11.60;;;;;;;-145.69;100.00;71213.38;5072433;28;20211;-75
2022/04/01 05:27:05;;;;;;;31.70;10.80;;;;;;;-145.69;100.00;71217.34;5073697;28;20201;-75
2022/04/01 05:29:37;;;;;;;29.53;11.30;;;;;;;-145.69;100.00;71215.34;5075679;28;20203;-75
2022/04/01 05:32:06;;;;;;;35.60;12.20;;;;;;;-145.69;100.00;71217.34;5075837;28;20203;-75
2022/04/01 05:34:40;;;;;;;39.07;12.73;;;;;;;-145.69;100.00;71209.38;5075620;28;20199;-74
2022/04/01 05:37:07;;;;;;;34.07;11.93;;;;;;;-145.69;100.00;71223.31;5075879;28;20252;-75
2022/04/01 05:39:35;;;;;;;40.23;13.63;;;;;;;-145.69;100.00;71215.34;5075447;28;20588;-75
2022/04/01 05:42:02;;;;;;;36.00;12.47;;;;;;;-145.69;100.00;71211.38;5075567;28;20233;-75
2022/04/01 05:44:30;;;;;;;39.10;13.57;;;;;;;-145.69;100.00;71209.38;5075523;28;20280;-75
2022/04/01 05:46:56;;;;;;;34.93;13.10;;;;;;;-145.69;100.00;71215.34;5075428;28;20199;-75
2022/04/01 05:49:24;;;;;;;40.33;13.77;;;;;;;-145.69;100.00;71219.34;5075062;28;20198;-75
2022/04/01 05:51:53;;;;;;;41.97;13.63;;;;;;;-145.69;100.00;71215.34;5075383;28;20210;-75
2022/04/01 05:54:22;;;;;;;43.87;14.80;;;;;;;-145.69;100.00;71223.31;5066236;28;20199;-75
2022/04/01 05:56:49;;;;;;;39.23;13.73;;;;;;;-145.69;100.00;71233.25;5055256;28;20211;-74
2022/04/01 05:59:18;;;;;;;38.57;14.47;;;;;;;-145.69;100.00;71227.28;5055262;28;20206;-75
2022/04/01 06:01:49;;;;;;;48.43;17.70;;;;;;;-145.69;100.00;71227.28;5055000;28;20613;-74
2022/04/01 06:04:40;;;;;;;49.63;17.47;;;;;;;-145.69;100.00;71233.25;5055281;28;20265;-75
2022/04/01 06:07:11;;;;;;;39.87;15.07;;;;;;;-145.69;100.00;71235.25;5053344;28;20230;-75
2022/04/01 06:09:59;;;;;;;39.33;13.43;;;;;;;-145.69;100.00;71235.25;5055079;28;20207;-75
2022/04/01 06:12:35;;;;;;;49.37;16.87;;;;;;;-145.69;100.00;71231.28;5054901;28;20884;-75
2022/04/01 06:15:10;;;;;;;38.60;13.83;;;;;;;-145.69;100.00;71233.25;5055076;28;20198;-75
2022/04/01 06:17:47;;;;;;;35.67;12.80;;;;;;;-145.69;100.00;71233.25;5054702;28;20280;-75
2022/04/01 06:20:16;;;;;;;35.27;12.40;;;;;;;-145.69;100.00;71243.22;5074012;28;20559;-75
2022/04/01 06:22:50;;;;;;;32.13;12.03;;;;;;;-145.69;100.00;71239.22;5074658;28;20212;-75
2022/04/01 06:25:20;;;;;;;35.70;14.03;;;;;;;-145.69;100.00;71251.16;5074875;28;20262;-75
2022/04/01 06:27:49;;;;;;;30.83;12.20;;;;;;;-145.69;100.00;71243.22;5074790;28;20207;-75
2022/04/01 06:30:17;;;;;;;35.43;14.13;;;;;;;-145.69;100.00;71255.16;5074746;28;20199;-75
2022/04/01 06:32:53;;;;;;;35.90;13.50;;;;;;;-145.69;100.00;71239.22;5074583;28;20199;-75
2022/04/01 06:35:23;;;;;;;30.73;12.63;;;;;;;-145.69;100.00;71253.16;5074706;28;20202;-74
2022/04/01 06:37:57;;;;;;;32.70;12.70;;;;;;;-145.69;100.00;71251.16;5074307;28;20203;-75
2022/04/01 06:40:28;;;;;;;32.50;12.10;;;;;;;-145.69;100.00;71253.16;5074600;28;20194;-75
2022/04/01 06:42:55;;;;;;;34.43;11.93;;;;;;;-145.69;100.00;71239.22;5074433;28;20530;-75
2022/04/01 06:45:22;;;;;;;30.80;11.10;;;;;;;-145.69;100.00;71251.16;5074170;28;20289;-74
2022/04/01 06:47:48;;;;;;;31.80;11.93;;;;;;;-145.69;100.00;71249.19;5073663;28;20279;-75
2022/04/01 06:50:16;;;;;;;50.23;21.60;;;;;;;-145.69;100.00;71255.16;5074491;28;20195;-75
2022/04/01 06:52:43;;;;;;;34.37;11.57;;;;;;;-145.69;100.00;71253.16;5074260;28;20198;-75
2022/04/01 06:55:12;;;;;;;38.13;12.67;;;;;;;-145.69;100.00;71251.16;5074237;28;20257;-75
2022/04/01 06:57:39;;;;;;;35.50;12.53;;;;;;;-145.69;100.00;71273.06;5073771;28;20199;-75
2022/04/01 07:00:08;;;;;;;31.27;11.60;;;;;;;-145.69;100.00;71263.09;5073910;28;20256;-74
2022/04/01 07:02:34;;;;;;;35.07;12.83;;;;;;;-145.69;100.00;71269.06;5073791;28;20199;-74
2022/04/01 07:05:01;;;;;;;36.00;12.87;;;;;;;-145.69;100.00;71271.06;5073934;28;20230;-74
2022/04/01 07:07:28;;;;;;;35.57;13.40;;;;;;;-145.69;100.00;71275.03;5073956;28;20289;-75
2022/04/01 07:09:54;;;;;;;33.43;12.47;;;;;;;-145.69;100.00;71279.03;5073912;28;20195;-75
2022/04/01 07:12:23;;;;;;;32.50;12.80;;;;;;;-145.69;100.00;71283.00;5073698;28;20607;-74
2022/04/01 07:14:50;;;;;;;32.73;12.73;;;;;;;-145.69;100.00;71277.03;5073365;28;20203;-74
2022/04/01 07:17:16;;;;;;;39.40;12.83;;;;;;;-145.69;100.00;71283.00;5073616;28;20231;-74
2022/04/01 07:19:43;;;;;;;33.73;12.50;;;;;;;-145.69;100.00;71275.03;5073254;28;20661;-75
2022/04/01 07:22:09;;;;;;;36.27;13.30;;;;;;;-145.69;100.00;71271.06;5073668;28;20201;-75
2022/04/01 07:24:36;;;;;;;39.83;14.20;;;;;;;-145.69;100.00;71267.09;5073524;28;20225;-75
2022/04/01 07:27:02;;;;;;;32.87;12.30;;;;;;;-145.69;100.00;71277.03;5073352;28;20248;-75
2022/04/01 07:29:30;;;;;;;32.93;12.60;;;;;;;-145.69;100.00;71277.03;5073377;28;20214;-75
2022/04/01 07:34:43;;;;;;;31.53;12.30;;;;;;;-145.69;100.00;71286.97;5073428;28;20283;-74
2022/04/01 07:37:10;;;;;;;39.13;13.70;;;;;;;-145.69;100.00;71298.94;5073136;28;20203;-75
2022/04/01 07:39:37;;;;;;;32.70;12.90;;;;;;;-145.69;100.00;71296.94;5073158;28;20562;-74
2022/04/01 07:42:05;;;;;;;33.10;12.53;;;;;;;-145.69;100.00;71308.88;5073230;28;20669;-75
2022/04/01 07:44:33;;;;;;;27.80;11.93;;;;;;;-145.69;100.00;71314.84;5073065;28;20206;-75
2022/04/01 07:47:01;;;;;;;32.30;12.93;;;;;;;-145.69;100.00;71316.84;5072649;28;20206;-75
2022/04/01 07:49:27;;;;;;;33.33;13.80;;;;;;;-145.69;100.00;71322.81;5072711;28;20199;-75
2022/04/01 07:51:54;;;;;;;30.50;13.50;;;;;;;-145.69;100.00;71330.75;5072897;28;20199;-74
2022/04/01 07:54:20;;;;;;;37.00;14.13;;;;;;;-145.69;100.00;71328.78;5073015;28;20202;-75
2022/04/01 07:56:47;;;;;;;39.37;14.40;;;;;;;-145.69;100.00;71326.78;5071911;28;20207;-75
2022/04/01 07:59:15;;;;;;;36.67;14.50;;;;;;;-145.69;100.00;71322.81;5072926;28;20202;-75
2022/04/01 08:01:43;;;;;;;43.77;17.97;;;;;;;-145.69;100.00;71314.84;5069963;28;20650;-75
2022/04/01 08:04:09;;;;;;;42.70;20.17;;;;;;;-145.69;100.00;71312.84;5072990;28;20571;-75
2022/04/01 08:06:36;;;;;;;39.60;14.27;;;;;;;-145.69;100.00;71320.81;5072862;28;20230;-74
2022/04/01 08:09:02;;;;;;;33.07;14.10;;;;;;;-145.69;100.00;71330.75;5072136;28;20199;-75
2022/04/01 08:11:32;;;;;;;37.57;13.67;;;;;;;-145.69;100.00;71320.81;5072947;28;20202;-75
2022/04/01 08:13:58;;;;;;;36.87;16.17;;;;;;;-145.69;100.00;71334.75;5072885;28;20203;-75
2022/04/01 08:16:25;;;;;;;34.17;13.63;;;;;;;-145.69;100.00;71340.72;5072545;28;20199;-75
2022/04/01 08:18:53;;;;;;;36.70;16.00;;;;;;;-145.69;100.00;71344.69;5072670;28;20413;-74
2022/04/01 08:21:20;;;;;;;30.80;13.07;;;;;;;-145.69;100.00;71336.72;5072605;28;20206;-74
2022/04/01 08:23:46;;;;;;;34.27;15.57;;;;;;;-145.69;100.00;71346.69;5072556;28;20205;-75
2022/04/01 08:26:13;;;;;;;31.67;12.90;;;;;;;-145.69;100.00;71346.69;5072753;28;20222;-74
2022/04/01 08:28:40;;;;;;;34.63;14.83;;;;;;;-145.69;100.00;71360.59;5072703;28;20203;-73
2022/04/01 08:31:08;;;;;;;33.20;12.93;;;;;;;-145.69;100.00;71358.63;5056429;28;20678;-73
2022/04/01 08:33:35;;;;;;;28.17;10.67;;;;;;;-145.69;100.00;71356.63;5062942;28;20207;-74
2022/04/01 08:36:06;;;;;;;27.03;11.57;;;;;;;-145.69;100.00;71360.59;5065501;28;20207;-73
2022/04/01 08:38:33;;;;;;;33.05;13.55;;;;;;;-145.69;100.00;71364.59;5052414;28;20826;-73
2022/04/01 08:41:00;;;;;;;27.73;11.90;;;;;;;-145.69;100.00;71366.56;5052510;28;20199;-74
2022/04/01 08:43:28;;;;;;;28.17;10.73;;;;;;;-145.69;100.00;71374.53;5052600;28;20286;-73
2022/04/01 08:45:56;;;;;;;27.73;10.77;;;;;;;-145.69;100.00;71386.47;5062019;28;20688;-73
2022/04/01 08:48:23;;;;;;;27.33;11.03;;;;;;;-145.69;100.00;71380.50;5072501;28;20226;-73
2022/04/01 08:50:50;;;;;;;27.53;10.83;;;;;;;-145.69;100.00;71386.47;5072304;28;20727;-73
2022/04/01 08:53:18;;;;;;;25.27;11.07;;;;;;;-145.69;100.00;71392.44;5072375;28;20199;-73
2022/04/01 08:55:49;;;;;;;27.50;11.87;;;;;;;-145.69;100.00;71392.44;5072327;28;20249;-74
2022/04/01 08:58:17;;;;;;;25.93;10.43;;;;;;;-145.69;100.00;71402.41;5072495;28;20199;-74
2022/04/01 09:00:47;;;;;;;33.57;12.73;;;;;;;-145.69;100.00;71404.38;5072391;28;20234;-74
2022/04/01 09:03:15;;;;;;;31.90;12.20;;;;;;;-145.69;100.00;71414.34;5075043;28;20198;-74
2022/04/01 09:05:47;;;;;;;34.80;12.77;;;;;;;-145.69;100.00;71418.31;5075791;28;20705;-74
2022/04/01 09:08:22;;;;;;;37.97;15.03;;;;;;;-145.69;100.00;71430.25;5075738;28;20195;-73
2022/04/01 09:10:53;;;;;;;37.43;14.50;;;;;;;-145.69;100.00;71418.31;5076123;28;20202;-74
2022/04/01 09:13:20;;;;;;;35.93;13.87;;;;;;;-145.69;100.00;71426.28;5075733;28;20771;-74
2022/04/01 09:15:47;;;;;;;42.47;15.50;;;;;;;-145.69;100.00;71432.25;5076174;28;20203;-74
2022/04/01 09:18:14;;;;;;;37.93;15.80;;;;;;;-145.69;100.00;71428.25;5075709;28;20280;-74
2022/04/01 09:20:45;;;;;;;36.70;14.07;;;;;;;-145.69;100.00;71420.31;5075827;28;20222;-73
2022/04/01 09:23:11;;;;;;;40.73;16.93;;;;;;;-145.69;100.00;71430.25;5075843;28;20206;-73
2022/04/01 09:25:47;;;;;;;38.17;14.87;;;;;;;-145.69;100.00;71418.31;5075728;28;20222;-73
2022/04/01 09:28:24;;;;;;;36.97;15.77;;;;;;;-145.69;100.00;71422.28;5075691;28;20256;-73
2022/04/01 09:31:00;;;;;;;41.43;16.07;;;;;;;-145.69;100.00;71414.34;5075766;28;20610;-73
2022/04/01 09:33:34;;;;;;;35.77;14.23;;;;;;;-145.69;100.00;71410.34;5075733;28;20209;-73
2022/04/01 09:36:06;;;;;;;32.47;14.37;;;;;;;-145.69;100.00;71398.41;5075533;28;20203;-73
2022/04/01 09:38:34;;;;;;;38.13;15.97;;;;;;;-145.69;100.00;71392.44;5075481;28;20199;-73
2022/04/01 09:41:03;;;;;;;34.40;14.50;;;;;;;-145.69;100.00;71394.44;5075728;28;20252;-74
2022/04/01 09:43:37;;;;;;;35.93;15.03;;;;;;;-145.69;100.00;71396.44;5075589;28;20253;-74
2022/04/01 09:46:05;;;;;;;40.73;15.43;;;;;;;-145.69;100.00;71386.47;5055371;28;20229;-74
2022/04/01 09:48:40;;;;;;;30.87;12.57;;;;;;;-145.69;100.00;71394.44;5055295;28;20291;-73
2022/04/01 09:51:10;;;;;;;32.13;12.90;;;;;;;-145.69;100.00;71394.44;5055183;28;20256;-73
2022/04/01 09:53:37;;;;;;;31.03;13.37;;;;;;;-145.69;100.00;71392.44;5055458;28;20211;-74
2022/04/01 09:56:09;;;;;;;27.27;11.93;;;;;;;-145.69;100.00;71382.50;5055165;28;20211;-74
2022/04/01 09:58:37;;;;;;;30.77;13.20;;;;;;;-145.69;100.00;71372.53;5055125;28;20729;-73
2022/04/01 10:01:08;;;;;;;27.60;12.93;;;;;;;-145.69;100.00;71382.50;5057444;28;20199;-73
2022/04/01 10:03:35;;;;;;;26.23;11.73;;;;;;;-145.69;100.00;71378.50;5054997;28;20261;-73
2022/04/01 10:06:04;;;;;;;26.57;12.27;;;;;;;-145.69;100.00;71382.50;5055072;28;20219;-76
2022/04/01 10:08:32;;;;;;;28.83;12.50;;;;;;;-145.69;100.00;71372.53;5061227;28;20187;-73
2022/04/01 10:10:59;;;;;;;24.13;10.60;;;;;;;-145.69;100.00;71352.66;5075053;28;20240;-74
2022/04/01 10:13:30;;;;;;;20.23;9.87;;;;;;;-145.69;100.00;71362.59;5074433;28;20217;-73
2022/04/01 10:15:59;;;;;;;19.27;9.47;;;;;;;-145.69;100.00;71358.63;5074822;28;20298;-74
2022/04/01 10:18:26;;;;;;;23.53;10.00;;;;;;;-145.69;100.00;71378.50;5074671;28;20234;-73
2022/04/01 10:20:55;;;;;;;17.07;8.10;;;;;;;-145.69;100.00;71370.56;5074870;28;20195;-73
2022/04/01 10:23:22;;;;;;;17.20;8.47;;;;;;;-145.69;100.00;71366.56;5074815;28;20206;-73
2022/04/01 10:25:54;;;;;;;14.23;6.90;;;;;;;-145.69;100.00;71364.59;5074644;28;20230;-73
2022/04/01 10:28:21;;;;;;;15.87;6.73;;;;;;;-145.69;100.00;71354.63;5074648;28;20256;-73
2022/04/01 10:30:52;;;;;;;14.23;6.80;;;;;;;-145.69;100.00;71344.69;5074758;28;20289;-73
2022/04/01 10:33:24;;;;;;;12.33;6.60;;;;;;;-145.69;100.00;71366.56;5074710;28;20206;-73
2022/04/01 10:35:52;;;;;;;11.03;6.40;;;;;;;-145.69;100.00;71368.56;5074552;28;20209;-73
2022/04/01 10:38:21;;;;;;;15.77;7.00;;;;;;;-145.69;100.00;71386.47;5074249;28;20286;-73
2022/04/01 10:40:53;;;;;;;16.93;8.07;;;;;;;-145.69;100.00;71370.56;5074323;28;20557;-73
2022/04/01 10:43:22;;;;;;;13.60;7.13;;;;;;;-145.69;100.00;71394.44;5074550;28;20230;-73
2022/04/01 10:46:00;;;;;;;12.23;6.53;;;;;;;-145.69;100.00;71402.41;5074271;28;20218;-73
2022/04/01 10:54:01;;;;;;;11.97;6.70;;;;;;;-145.69;100.00;71418.31;5074103;28;20225;-72
2022/04/01 10:56:29;;;;;;;13.00;6.67;;;;;;;-145.69;100.00;71418.31;5074057;28;20214;-72
2022/04/01 10:59:13;;;;;;;15.53;7.37;;;;;;;-145.69;100.00;71434.22;5073817;28;20661;-72
2022/04/01 11:01:44;;;;;;;15.40;7.73;;;;;;;-145.69;100.00;71432.25;5073856;28;20202;-72
2022/04/01 11:04:32;;;;;;;19.10;8.67;;;;;;;-145.69;100.00;71420.31;5073554;28;20198;-72
2022/04/01 11:07:01;;;;;;;16.77;8.23;;;;;;;-145.69;100.00;71386.47;5073794;28;20226;-75
2022/04/01 11:09:36;;;;;;;13.47;6.50;;;;;;;-145.69;100.00;71414.34;5073797;28;20252;-72
2022/04/01 11:12:29;;;;;;;21.77;7.80;;;;;;;-145.69;100.00;71406.38;5073724;28;20202;-73
2022/04/01 11:15:25;;;;;;;14.20;6.83;;;;;;;-145.69;100.00;71426.28;5073553;28;20650;-73
2022/04/01 11:18:06;;;;;;;14.33;7.00;;;;;;;-145.69;100.00;71424.28;5073510;28;20235;-73